FXMM/MSU METAR and TAF weather

Enter ICAO airport designator
Station Type Date Time Source
FXMM METAR 2021/03/05 10:00 UTC NOAA

FXMM 051000Z 36005KT 9999 SCT035 25/12 Q1019 NOSIG


Station Type Date Time Source
FXMM Decoded METAR 2021/03/05 10:00 UTC NOAA

Maseru / Moshoeshoe, Lesotho (FXMM) 29-27S 027-33E
Mar 05, 2021 - 05:00 AM EST / 2021.03.05 1000 UTC
Wind: from the N (360 degrees) at 6 MPH (5 KT):0
Visibility: greater than 7 mile(s):0
Sky conditions: partly cloudy
Temperature: 77 F (25 C)
Dew Point: 53 F (12 C)
Relative Humidity: 44%
Pressure (altimeter): 30.09 in. Hg (1019 hPa)
ob: FXMM 051000Z 36005KT 9999 SCT035 25/12 Q1019 NOSIG
cycle: 10

Station Type Date Time Source
FXMM TAF 2021/01/14 06:51 UTC NOAA

TAF TAF FXMM 140600Z 1406/1506 00000KT 9999 FEW030 BKN/// TX25/1412Z TN16/1503Z
BECMG 1410/1412 30010KT PROB30
TEMPO 1412/1416 5000 +TSRA FEW035CB
BECMG 1418/1420 00000KT

Example: see airport list